Terminal Aerodrome Forecast
Issued by NWS Portland, OR

Home | Current Version | Previous Version | Text Only | Print | Product List | Glossary On
Versions: 1 2 3 4 5 6 7 8 9 10 11 12 13 14 15 16 17
000
FTUS46 KPQR 271324 AAA
TAFTTD
TAF AMD
KTTD 271324Z 2713/2812 VRB03KT P6SM BKN015
     FM271600 VRB03KT P6SM SCT015 BKN025
     FM271800 VRB03KT P6SM SCT025 BKN035
     FM272000 26003KT P6SM BKN045
     FM272100 25004KT P6SM FEW050
     FM280400 24003KT P6SM SKC=

USA.gov is the U.S. government's official web portal to all federal, state and local government web resources and services.